createdAt,value
2023-02-23T00:01:01.310Z,100444.53
2023-02-23T00:04:04.080Z,100475.84
2023-02-23T00:07:09.673Z,100475.84
2023-02-23T00:10:13.742Z,100481.06
2023-02-23T00:13:15.456Z,100461.94
2023-02-23T00:16:22.525Z,100473.25
2023-02-23T00:19:25.059Z,100474.09
2023-02-23T00:22:27.139Z,100480.22
2023-02-23T00:25:31.222Z,100449.78
2023-02-23T00:28:33.178Z,100476.72
2023-02-23T00:31:36.006Z,100478.47
2023-02-23T00:34:37.897Z,100473.22
2023-02-23T00:37:39.625Z,100459.31
2023-02-23T00:40:42.447Z,100479.34
2023-02-23T00:43:50.093Z,100471.50
2023-02-23T00:46:52.652Z,100488.91
2023-02-23T00:49:54.599Z,100485.41
2023-02-23T00:52:59.688Z,100496.69
2023-02-23T00:56:03.767Z,100496.69
2023-02-23T00:59:05.500Z,100494.94
2023-02-23T01:02:07.330Z,100490.59
2023-02-23T01:05:11.136Z,100485.34
2023-02-23T01:08:12.898Z,100478.38
2023-02-23T01:11:17.993Z,100492.31
2023-02-23T01:14:20.324Z,100465.31
2023-02-23T01:17:22.261Z,100494.03
2023-02-23T01:20:26.687Z,100508.75
2023-02-23T01:23:29.330Z,100503.53
2023-02-23T01:26:37.465Z,100489.66
2023-02-23T01:29:39.220Z,100476.59
2023-02-23T01:32:42.374Z,100490.53
2023-02-23T01:35:44.101Z,100494.91
2023-02-23T01:38:49.317Z,100491.44
2023-02-23T01:41:52.569Z,100487.97
2023-02-23T01:45:27.257Z,100490.56
2023-02-23T01:48:37.493Z,100469.66
2023-02-23T01:51:48.556Z,100481.84
2023-02-23T01:54:53.589Z,100487.91
2023-02-23T01:58:04.398Z,100467.94
2023-02-23T02:01:07.345Z,100474.00
2023-02-23T02:04:16.626Z,100472.25
2023-02-23T02:07:23.841Z,100437.44
2023-02-23T02:10:44.409Z,100466.16
2023-02-23T02:13:46.456Z,100464.38
2023-02-23T02:17:16.027Z,100475.63
2023-02-23T02:20:43.022Z,100479.06
2023-02-23T02:23:47.659Z,100467.69
2023-02-23T02:27:13.934Z,100461.53
2023-02-23T02:30:24.735Z,100471.03
2023-02-23T02:33:51.322Z,100463.97
2023-02-23T02:37:04.956Z,100470.84
2023-02-23T02:40:53.295Z,100477.72
2023-02-23T02:44:15.347Z,100464.50
2023-02-23T02:47:25.564Z,100451.31
2023-02-23T02:50:34.393Z,100486.22
2023-02-23T02:53:47.192Z,100489.69
2023-02-23T02:56:52.062Z,100475.78
2023-02-23T03:00:16.472Z,100488.84
2023-02-23T03:03:57.308Z,100492.38
2023-02-23T03:07:24.590Z,100492.34
2023-02-23T03:11:07.244Z,100490.59
2023-02-23T03:14:38.154Z,100497.47
2023-02-23T03:18:07.193Z,100494.81
2023-02-23T03:21:40.216Z,100494.72
2023-02-23T03:25:39.109Z,100497.19
2023-02-23T03:29:27.005Z,100504.03
2023-02-23T03:33:02.308Z,100500.50
2023-02-23T03:36:32.375Z,100476.91
2023-02-23T03:40:21.573Z,100503.88
2023-02-23T03:43:47.079Z,100478.53
2023-02-23T03:47:08.892Z,100491.66
2023-02-23T03:50:39.146Z,100490.66
2023-02-23T03:54:09.488Z,100504.53
2023-02-23T03:57:35.265Z,100505.31
2023-02-23T04:01:05.716Z,100504.44
2023-02-23T04:04:28.469Z,100471.28
2023-02-23T04:07:50.394Z,100506.94
2023-02-23T04:11:21.185Z,100509.50
2023-02-23T04:14:29.512Z,100493.78
2023-02-23T04:17:31.645Z,100501.72
2023-02-23T04:20:33.762Z,100505.06
2023-02-23T04:23:38.021Z,100499.75
2023-02-23T04:26:39.820Z,100507.50
2023-02-23T04:29:42.397Z,100493.50
2023-02-23T04:32:46.088Z,100503.09
2023-02-23T04:35:48.590Z,100494.41
2023-02-23T04:38:50.394Z,100493.47
2023-02-23T04:41:52.121Z,100485.59
2023-02-23T04:44:53.938Z,100498.66
2023-02-23T04:47:56.297Z,100490.81
2023-02-23T04:50:58.095Z,100502.03
2023-02-23T04:54:00.182Z,100497.66
2023-02-23T04:57:02.043Z,100502.88
2023-02-23T05:00:05.332Z,100505.47
2023-02-23T05:03:07.479Z,100510.66
2023-02-23T05:06:09.363Z,100498.41
2023-02-23T05:09:11.131Z,100513.19
2023-02-23T05:12:12.920Z,100513.25
2023-02-23T05:15:15.095Z,100515.81
2023-02-23T05:18:16.883Z,100495.72
2023-02-23T05:21:18.909Z,100521.88
2023-02-23T05:24:20.937Z,100524.34
2023-02-23T05:27:22.749Z,100520.00
2023-02-23T05:30:24.553Z,100525.22
2023-02-23T05:33:26.705Z,100526.03
2023-02-23T05:36:28.936Z,100507.72
2023-02-23T05:39:30.742Z,100529.59
2023-02-23T05:42:32.579Z,100535.75
2023-02-23T05:45:34.337Z,100513.16
2023-02-23T05:48:36.463Z,100540.22
2023-02-23T05:51:39.575Z,100541.94
2023-02-23T05:54:41.383Z,100544.63
2023-02-23T05:57:43.808Z,100535.94
2023-02-23T06:00:45.596Z,100543.06
2023-02-23T06:03:48.441Z,100538.69
2023-02-23T06:06:50.742Z,100557.88
2023-02-23T06:09:52.497Z,100543.13
2023-02-23T06:12:54.222Z,100546.63
2023-02-23T06:15:56.090Z,100565.00
2023-02-23T06:18:57.909Z,100555.34
2023-02-23T06:22:00.131Z,100568.53
2023-02-23T06:25:04.964Z,100572.03
2023-02-23T06:28:08.670Z,100567.00
2023-02-23T06:31:10.737Z,100574.03
2023-02-23T06:34:12.675Z,100575.78
2023-02-23T06:37:14.694Z,100566.28
2023-02-23T06:40:16.751Z,100569.03
2023-02-23T06:43:18.563Z,100581.34
2023-02-23T06:46:21.530Z,100577.78
2023-02-23T06:49:23.341Z,100586.66
2023-02-23T06:52:25.852Z,100585.91
2023-02-23T06:55:27.653Z,100579.91
2023-02-23T06:58:30.149Z,100592.91
2023-02-23T07:01:31.947Z,100576.38
2023-02-23T07:04:33.959Z,100580.75
2023-02-23T07:07:35.955Z,100594.69
2023-02-23T07:10:37.787Z,100588.69
2023-02-23T07:13:40.238Z,100594.06
2023-02-23T07:16:42.024Z,100586.41
2023-02-23T07:19:44.512Z,100581.25
2023-02-23T07:22:46.585Z,100567.38
2023-02-23T07:25:53.601Z,100586.69
2023-02-23T07:28:55.268Z,100571.03
2023-02-23T07:31:57.091Z,100567.53
2023-02-23T07:34:58.817Z,100583.28
2023-02-23T07:38:00.628Z,100585.13
2023-02-23T07:41:03.641Z,100586.09
2023-02-23T07:44:05.674Z,100586.13
2023-02-23T07:47:07.441Z,100581.81
2023-02-23T07:50:10.441Z,100584.50
2023-02-23T07:53:12.387Z,100566.25
2023-02-23T07:56:14.244Z,100580.19
2023-02-23T07:59:16.137Z,100583.66
2023-02-23T08:02:18.059Z,100536.69
2023-02-23T08:05:20.639Z,100572.38
2023-02-23T08:08:25.182Z,100574.13
2023-02-23T08:11:31.494Z,100537.59
2023-02-23T08:14:33.230Z,100574.16
2023-02-23T08:17:39.320Z,100587.19
2023-02-23T08:20:41.478Z,100586.25
2023-02-23T08:23:46.069Z,100585.34
2023-02-23T08:26:51.128Z,100585.25
2023-02-23T08:29:58.185Z,100573.03
2023-02-23T08:33:01.597Z,100586.88
2023-02-23T08:36:03.718Z,100583.31
2023-02-23T08:39:07.479Z,100585.88
2023-02-23T08:42:11.955Z,100588.38
2023-02-23T08:45:13.741Z,100575.22
2023-02-23T08:48:15.527Z,100582.06
2023-02-23T08:51:20.278Z,100581.09
2023-02-23T08:54:22.191Z,100567.94
2023-02-23T08:57:24.058Z,100579.22
2023-02-23T09:00:25.893Z,100587.91
2023-02-23T09:03:30.750Z,100588.66
2023-02-23T09:06:35.284Z,100578.16
2023-02-23T09:09:37.049Z,100585.88
2023-02-23T09:12:38.867Z,100584.84
2023-02-23T09:15:41.733Z,100554.31
2023-02-23T09:18:43.632Z,100571.50
2023-02-23T09:21:45.539Z,100579.53
2023-02-23T09:24:47.412Z,100563.03
2023-02-23T09:27:53.245Z,100560.25
2023-02-23T09:30:55.082Z,100566.91
2023-02-23T09:33:56.940Z,100564.16
2023-02-23T09:36:58.759Z,100547.44
2023-02-23T09:40:00.507Z,100562.88
2023-02-23T09:43:30.723Z,100575.06
2023-02-23T09:47:07.582Z,100573.16
2023-02-23T09:50:17.749Z,100553.91
2023-02-23T09:53:32.770Z,100557.22
2023-02-23T09:56:45.421Z,100566.59
2023-02-23T09:59:47.544Z,100567.38
2023-02-23T10:03:08.262Z,100568.19
2023-02-23T10:06:15.797Z,100564.66
2023-02-23T10:09:32.917Z,100572.44
2023-02-23T10:12:34.700Z,100563.59
2023-02-23T10:15:48.356Z,100550.41
2023-02-23T10:19:13.269Z,100558.34
2023-02-23T10:22:16.499Z,100550.69
2023-02-23T10:25:26.162Z,100553.25
2023-02-23T10:28:33.346Z,100545.44
2023-02-23T10:31:45.144Z,100552.31
2023-02-23T10:34:49.567Z,100544.53
2023-02-23T10:37:52.989Z,100510.69
2023-02-23T10:40:56.232Z,100546.16
2023-02-23T10:44:10.865Z,100540.91
2023-02-23T10:47:23.331Z,100532.13
2023-02-23T10:50:29.207Z,100534.72
2023-02-23T10:53:36.913Z,100524.19
2023-02-23T10:56:46.555Z,100519.00
2023-02-23T11:00:13.567Z,100521.50
2023-02-23T11:03:25.493Z,100520.59
2023-02-23T11:06:30.341Z,100518.09
2023-02-23T11:09:45.702Z,100516.44
2023-02-23T11:12:49.883Z,100498.06
2023-02-23T11:15:59.682Z,100503.13
2023-02-23T11:19:04.190Z,100486.59
2023-02-23T11:22:06.809Z,100497.88
2023-02-23T11:25:28.082Z,100499.59
2023-02-23T11:28:36.833Z,100503.88
2023-02-23T11:31:40.813Z,100500.34
2023-02-23T11:34:43.888Z,100484.69
2023-02-23T11:37:45.955Z,100492.38
2023-02-23T11:41:28.204Z,100495.75
2023-02-23T11:44:29.988Z,100479.94
2023-02-23T11:47:39.537Z,100495.41
2023-02-23T11:50:48.575Z,100504.97
2023-02-23T11:53:50.427Z,100478.84
2023-02-23T11:56:55.274Z,100484.03
2023-02-23T11:59:59.952Z,100478.69
2023-02-23T12:03:05.584Z,100486.56
2023-02-23T12:06:07.802Z,100483.69
2023-02-23T12:09:32.826Z,100480.03
2023-02-23T12:12:45.477Z,100484.28
2023-02-23T12:16:06.185Z,100489.44
2023-02-23T12:19:27.143Z,100474.50
2023-02-23T12:22:53.538Z,100469.25
2023-02-23T12:26:05.131Z,100463.94
2023-02-23T12:29:21.618Z,100434.47
2023-02-23T12:32:43.116Z,100459.31
2023-02-23T12:36:29.919Z,100458.22
2023-02-23T12:39:35.899Z,100456.59
2023-02-23T12:42:46.759Z,100452.00
2023-02-23T12:46:02.603Z,100453.56
2023-02-23T12:49:17.538Z,100448.00
2023-02-23T12:52:25.868Z,100450.53
2023-02-23T12:55:35.117Z,100439.88
2023-02-23T12:58:43.724Z,100432.66
2023-02-23T13:01:59.638Z,100434.41
2023-02-23T13:05:19.944Z,100429.75
2023-02-23T13:08:43.473Z,100427.94
2023-02-23T13:11:51.406Z,100436.66
2023-02-23T13:14:58.648Z,100428.81
2023-02-23T13:18:25.679Z,100421.06
2023-02-23T13:21:34.906Z,100424.59
2023-02-23T13:24:40.859Z,100422.84
2023-02-23T13:27:50.800Z,100417.75
2023-02-23T13:30:54.143Z,100422.31
2023-02-23T13:33:58.733Z,100427.81
2023-02-23T13:37:03.482Z,100420.09
2023-02-23T13:40:37.884Z,100415.78
2023-02-23T13:43:49.597Z,100411.38
2023-02-23T13:47:03.759Z,100407.97
2023-02-23T13:50:34.256Z,100418.66
2023-02-23T13:53:41.100Z,100409.34
2023-02-23T13:56:59.241Z,100408.69
2023-02-23T14:00:01.307Z,100399.28
2023-02-23T14:03:08.182Z,100400.31
2023-02-23T14:06:14.146Z,100393.47
2023-02-23T14:09:23.918Z,100399.84
2023-02-23T14:13:00.489Z,100397.38
2023-02-23T14:16:15.394Z,100377.53
2023-02-23T14:19:38.070Z,100389.78
2023-02-23T14:23:18.683Z,100391.69
2023-02-23T14:26:42.503Z,100386.63
2023-02-23T14:30:05.282Z,100391.03
2023-02-23T14:33:37.689Z,100395.47
2023-02-23T14:36:44.529Z,100397.47
2023-02-23T14:39:50.326Z,100387.09
2023-02-23T14:42:57.414Z,100389.66
2023-02-23T14:46:05.960Z,100371.63
2023-02-23T14:49:15.429Z,100378.56
2023-02-23T14:52:22.534Z,100355.16
2023-02-23T14:55:29.210Z,100373.38
2023-02-23T14:58:35.384Z,100340.47
2023-02-23T15:01:39.835Z,100382.09
2023-02-23T15:04:42.218Z,100370.84
2023-02-23T15:07:45.695Z,100378.72
2023-02-23T15:10:50.497Z,100364.94
2023-02-23T15:13:52.497Z,100370.19
2023-02-23T15:16:56.677Z,100370.38
2023-02-23T15:20:14.747Z,100365.16
2023-02-23T15:23:20.261Z,100346.28
2023-02-23T15:26:32.729Z,100343.84
2023-02-23T15:29:34.465Z,100347.34
2023-02-23T15:32:38.145Z,100355.19
2023-02-23T15:35:49.309Z,100360.53
2023-02-23T15:38:55.294Z,100361.50
2023-02-23T15:41:57.082Z,100343.44
2023-02-23T15:45:01.836Z,100366.94
2023-02-23T15:48:08.114Z,100348.81
2023-02-23T15:51:23.044Z,100356.72
2023-02-23T15:54:33.068Z,100355.91
2023-02-23T15:57:53.444Z,100324.78
2023-02-23T16:01:06.116Z,100352.59
2023-02-23T16:04:16.335Z,100348.44
2023-02-23T16:07:24.401Z,100357.31
2023-02-23T16:10:27.667Z,100359.88
2023-02-23T16:13:29.867Z,100353.19
2023-02-23T16:16:35.444Z,100368.94
2023-02-23T16:19:41.193Z,100367.28
2023-02-23T16:22:46.175Z,100356.94
2023-02-23T16:25:53.715Z,100360.44
2023-02-23T16:28:59.774Z,100342.34
2023-02-23T16:32:03.602Z,100364.91
2023-02-23T16:35:18.011Z,100372.84
2023-02-23T16:38:27.511Z,100352.03
2023-02-23T16:41:31.921Z,100351.22
2023-02-23T16:44:42.852Z,100346.03
2023-02-23T16:47:50.047Z,100360.00
2023-02-23T16:50:52.147Z,100353.91
2023-02-23T16:53:53.876Z,100353.06
2023-02-23T16:56:56.465Z,100331.50
2023-02-23T16:59:58.831Z,100345.34
2023-02-23T17:03:01.495Z,100354.91
2023-02-23T17:06:03.535Z,100343.75
2023-02-23T17:09:05.385Z,100355.03
2023-02-23T17:12:07.303Z,100352.47
2023-02-23T17:15:17.832Z,100358.63
2023-02-23T17:21:31.797Z,100347.41
2023-02-23T17:24:33.798Z,100346.59
2023-02-23T17:27:35.690Z,100347.47
2023-02-23T17:30:40.045Z,100314.50
2023-02-23T17:33:42.271Z,100349.25
2023-02-23T17:36:44.194Z,100344.91
2023-02-23T17:39:49.716Z,100344.91
2023-02-23T17:42:51.929Z,100348.41
2023-02-23T17:45:54.919Z,100342.31
2023-02-23T17:48:56.883Z,100331.06
2023-02-23T17:51:58.687Z,100337.97
2023-02-23T17:55:00.640Z,100332.72
2023-02-23T17:58:02.396Z,100325.75
2023-02-23T18:01:07.201Z,100338.81
2023-02-23T18:04:09.587Z,100335.34
2023-02-23T18:07:11.746Z,100326.66
2023-02-23T18:10:14.623Z,100335.34
2023-02-23T18:13:16.594Z,100337.13
2023-02-23T18:16:19.278Z,100324.94
2023-02-23T18:19:21.586Z,100324.09
2023-02-23T18:22:23.312Z,100331.94
2023-02-23T18:25:28.637Z,100326.72
2023-02-23T18:28:30.826Z,100322.44
2023-02-23T18:31:34.135Z,100319.81
2023-02-23T18:34:36.049Z,100328.53
2023-02-23T18:37:38.078Z,100320.72
2023-02-23T18:40:40.486Z,100325.06
2023-02-23T18:43:42.642Z,100317.28
2023-02-23T18:46:46.659Z,100309.50
2023-02-23T18:49:48.851Z,100327.72
2023-02-23T18:52:53.632Z,100330.31
2023-02-23T18:55:55.520Z,100330.31
2023-02-23T18:58:59.754Z,100305.16
2023-02-23T19:02:01.600Z,100333.84
2023-02-23T19:05:04.119Z,100332.09
2023-02-23T19:08:13.520Z,100324.28
2023-02-23T19:11:15.446Z,100332.09
2023-02-23T19:14:19.883Z,100325.19
2023-02-23T19:17:22.663Z,100333.84
2023-02-23T19:20:24.741Z,100305.22
2023-02-23T19:23:26.853Z,100307.81
2023-02-23T19:26:29.764Z,100339.09
2023-02-23T19:29:31.770Z,100333.88
2023-02-23T19:32:33.779Z,100325.19
2023-02-23T19:35:39.465Z,100334.81
2023-02-23T19:38:45.791Z,100336.53
2023-02-23T19:41:47.928Z,100339.16
2023-02-23T19:44:49.768Z,100323.53
2023-02-23T19:47:53.278Z,100335.72
2023-02-23T19:50:55.086Z,100331.38
2023-02-23T19:53:58.036Z,100333.13
2023-02-23T19:57:00.237Z,100337.50
2023-02-23T20:00:02.440Z,100331.44
2023-02-23T20:03:10.516Z,100331.44
2023-02-23T20:06:14.111Z,100334.97
2023-02-23T20:09:16.993Z,100341.03
2023-02-23T20:12:18.772Z,100321.94
2023-02-23T20:15:20.689Z,100303.72
2023-02-23T20:18:23.287Z,100315.88
2023-02-23T20:21:30.639Z,100321.09
2023-02-23T20:24:38.469Z,100322.84
2023-02-23T20:27:40.391Z,100306.34
2023-02-23T20:30:47.348Z,100312.41
2023-02-23T20:33:52.459Z,100306.34
2023-02-23T20:36:55.798Z,100256.84
2023-02-23T20:39:57.574Z,100297.66
2023-02-23T20:42:59.977Z,100294.19
2023-02-23T20:46:02.947Z,100298.50
2023-02-23T20:49:11.803Z,100296.81
2023-02-23T20:52:14.374Z,100297.66
2023-02-23T20:55:19.247Z,100296.81
2023-02-23T20:58:29.458Z,100286.38
2023-02-23T21:01:34.621Z,100261.19
2023-02-23T21:04:39.000Z,100295.94
2023-02-23T21:07:44.266Z,100282.06
2023-02-23T21:10:48.358Z,100285.50
2023-02-23T21:13:56.055Z,100258.59
2023-02-23T21:16:58.210Z,100284.66
2023-02-23T21:20:01.823Z,100280.31
2023-02-23T21:23:04.334Z,100282.91
2023-02-23T21:26:16.203Z,100280.28
2023-02-23T21:29:18.641Z,100274.22
2023-02-23T21:32:20.376Z,100283.78
2023-02-23T21:35:22.347Z,100272.47
2023-02-23T21:38:25.951Z,100278.56
2023-02-23T21:41:33.773Z,100282.91
2023-02-23T21:44:35.721Z,100282.03
2023-02-23T21:47:40.347Z,100275.09
2023-02-23T21:50:42.242Z,100275.94
2023-02-23T21:53:46.201Z,100283.75
2023-02-23T21:56:47.969Z,100277.69
2023-02-23T21:59:50.058Z,100258.59
2023-02-23T22:02:51.875Z,100270.72
2023-02-23T22:05:53.772Z,100278.56
2023-02-23T22:08:56.337Z,100280.31
2023-02-23T22:11:58.183Z,100272.47
2023-02-23T22:15:04.840Z,100275.94
2023-02-23T22:18:07.058Z,100262.94
2023-02-23T22:21:11.697Z,100233.41
2023-02-23T22:24:15.336Z,100267.25
2023-02-23T22:27:17.206Z,100266.41
2023-02-23T22:30:22.513Z,100262.94
2023-02-23T22:33:24.373Z,100249.94
2023-02-23T22:36:26.366Z,100262.06
2023-02-23T22:39:33.280Z,100260.31
2023-02-23T22:42:35.787Z,100255.13
2023-02-23T22:45:38.686Z,100253.38
2023-02-23T22:48:44.928Z,100250.78
2023-02-23T22:51:46.782Z,100243.84
2023-02-23T22:54:48.601Z,100255.13
2023-02-23T22:57:50.345Z,100241.25
2023-02-23T23:01:06.323Z,100242.09
2023-02-23T23:04:11.165Z,100217.78
2023-02-23T23:07:13.593Z,100205.66
2023-02-23T23:10:17.685Z,100221.28
2023-02-23T23:13:19.578Z,100209.97
2023-02-23T23:16:31.574Z,100212.56
2023-02-23T23:19:39.055Z,100210.88
2023-02-23T23:22:40.941Z,100208.25
2023-02-23T23:25:47.573Z,100208.25
2023-02-23T23:29:00.962Z,100200.44
2023-02-23T23:32:06.869Z,100200.44
2023-02-23T23:35:11.182Z,100200.41
2023-02-23T23:38:14.615Z,100165.69
2023-02-23T23:41:18.963Z,100191.72
2023-02-23T23:44:24.009Z,100209.09
2023-02-23T23:47:26.860Z,100197.81
2023-02-23T23:50:28.736Z,100208.25
2023-02-23T23:53:33.568Z,100174.41
2023-02-23T23:56:39.115Z,100183.06
2023-02-23T23:59:46.311Z,100193.47
